Temperatur und Luftfeuchte

Temperatur und Luftfeuchte

Die letzten 100 Messwerte

Nummer Datum und Zeit Sensor ID Temperatur in Celsius gef├╝hlte Temperatur Luftfeuchte in %
121321 2023-10-04 09:29:44 Bahnzimmer 18.00 17.81 74.70
121320 2023-10-04 09:26:03 Terrasse 11.50 10.61 73.00
121319 2023-10-04 09:21:16 Aussentemperatur 11.10 10.39 81.20
121318 2023-10-04 08:57:49 Terrasse 10.70 9.77 74.50
121317 2023-10-04 08:52:47 Aussentemperatur 11.00 10.28 81.20
121316 2023-10-04 08:29:39 Terrasse 10.30 9.34 74.70
121315 2023-10-04 08:29:38 Bahnzimmer 18.00 17.81 74.80
121314 2023-10-04 08:24:21 Aussentemperatur 10.60 9.83 80.90
121313 2023-10-04 08:01:31 Terrasse 10.00 9.01 74.90
121312 2023-10-04 07:59:37 Bahnzimmer 17.80 17.59 75.00
121311 2023-10-04 07:55:54 Aussentemperatur 10.70 9.93 80.50
121310 2023-10-04 07:33:23 Terrasse 9.90 8.89 74.30
121309 2023-10-04 07:29:36 Bahnzimmer 17.80 17.57 74.20
121308 2023-10-04 07:27:27 Aussentemperatur 10.70 9.93 80.60
121307 2023-10-04 07:05:15 Terrasse 10.00 9.01 74.70
121306 2023-10-04 06:59:36 Bahnzimmer 17.80 17.58 74.30
121305 2023-10-04 06:59:01 Aussentemperatur 10.90 10.13 80.00
121304 2023-10-04 06:37:06 Terrasse 9.90 8.90 74.80
121303 2023-10-04 06:30:32 Aussentemperatur 10.90 10.14 80.20
121302 2023-10-04 06:29:35 Bahnzimmer 17.80 17.57 74.20
121301 2023-10-04 06:08:58 Terrasse 10.00 8.99 74.00
121300 2023-10-04 06:02:05 Aussentemperatur 10.90 10.13 79.80
121299 2023-10-04 05:59:34 Bahnzimmer 17.80 17.57 74.20
121298 2023-10-04 05:40:51 Terrasse 10.20 9.21 74.20
121297 2023-10-04 05:33:38 Aussentemperatur 11.10 10.34 79.50
121296 2023-10-04 05:29:34 Bahnzimmer 17.80 17.57 74.20
121295 2023-10-04 05:12:40 Terrasse 10.00 9.00 74.60
121294 2023-10-04 05:05:10 Aussentemperatur 11.00 10.23 79.40
121293 2023-10-04 04:59:33 Bahnzimmer 17.90 17.68 74.20
121292 2023-10-04 04:44:31 Terrasse 9.70 8.67 74.40
121291 2023-10-04 04:36:42 Aussentemperatur 10.70 9.91 79.80
121290 2023-10-04 04:29:32 Bahnzimmer 17.90 17.69 74.30
121289 2023-10-04 04:16:23 Terrasse 9.70 8.64 73.40
121288 2023-10-04 04:08:15 Aussentemperatur 10.60 9.79 79.50
121287 2023-10-04 03:59:32 Bahnzimmer 18.00 17.79 74.20
121286 2023-10-04 03:48:19 Terrasse 9.70 8.65 73.80
121285 2023-10-04 03:39:45 Aussentemperatur 10.50 9.69 79.80
121284 2023-10-04 03:29:31 Bahnzimmer 18.00 17.79 74.10
121283 2023-10-04 03:20:10 Terrasse 10.00 8.94 72.20
121282 2023-10-04 03:11:18 Aussentemperatur 10.60 9.79 79.50
121281 2023-10-04 02:59:30 Bahnzimmer 18.00 17.80 74.30
121280 2023-10-04 02:52:03 Terrasse 10.00 8.94 72.30
121279 2023-10-04 02:42:51 Aussentemperatur 10.80 10.01 79.60
121278 2023-10-04 02:29:30 Bahnzimmer 18.00 17.79 74.20
121277 2023-10-04 02:23:55 Terrasse 10.20 9.16 72.10
121276 2023-10-04 02:14:25 Aussentemperatur 10.90 10.12 79.60
121275 2023-10-04 01:59:29 Bahnzimmer 18.10 17.90 74.10
121274 2023-10-04 01:55:48 Terrasse 10.50 9.47 71.50
121273 2023-10-04 01:45:58 Aussentemperatur 11.10 10.35 79.80
121272 2023-10-04 01:29:28 Bahnzimmer 18.10 17.90 74.20
121271 2023-10-04 01:27:45 Terrasse 10.80 9.80 71.40
121270 2023-10-04 01:17:33 Aussentemperatur 11.40 10.68 80.00
121269 2023-10-04 00:59:35 Terrasse 11.00 10.04 72.00
121268 2023-10-04 00:59:27 Bahnzimmer 18.10 17.91 74.30
121267 2023-10-04 00:49:07 Aussentemperatur 11.40 10.68 79.80
121266 2023-10-04 00:31:27 Terrasse 11.00 10.01 71.20
121265 2023-10-04 00:29:27 Bahnzimmer 18.10 17.91 74.40
121264 2023-10-04 00:20:41 Aussentemperatur 11.70 11.02 80.10
121263 2023-10-04 00:03:22 Terrasse 11.40 10.47 71.70
121262 2023-10-03 23:59:26 Bahnzimmer 18.20 18.02 74.30
121261 2023-10-03 23:52:16 Aussentemperatur 11.90 11.24 80.40
121260 2023-10-03 23:35:15 Terrasse 11.70 10.80 71.60
121259 2023-10-03 23:29:26 Bahnzimmer 18.30 18.12 74.20
121258 2023-10-03 23:23:51 Aussentemperatur 12.20 11.58 80.70
121257 2023-10-03 23:07:08 Terrasse 12.20 11.34 71.50
121256 2023-10-03 22:59:25 Bahnzimmer 18.30 18.12 74.20
121255 2023-10-03 22:55:26 Aussentemperatur 12.50 11.92 80.80
121254 2023-10-03 22:39:01 Terrasse 12.50 11.67 71.50
121253 2023-10-03 22:29:24 Bahnzimmer 18.20 18.02 74.50
121252 2023-10-03 22:27:01 Aussentemperatur 13.00 12.45 80.10
121251 2023-10-03 22:10:55 Terrasse 12.90 12.08 70.10
121250 2023-10-03 21:59:24 Bahnzimmer 18.30 18.13 74.50
121249 2023-10-03 21:58:34 Aussentemperatur 13.10 12.54 79.50
121248 2023-10-03 21:42:47 Terrasse 13.00 12.19 70.40
121247 2023-10-03 21:30:07 Aussentemperatur 13.30 12.75 79.20
121246 2023-10-03 21:29:23 Bahnzimmer 18.30 18.13 74.40
121245 2023-10-03 21:14:39 Terrasse 13.30 12.51 69.90
121244 2023-10-03 21:01:40 Aussentemperatur 13.40 12.86 78.90
121243 2023-10-03 20:59:22 Bahnzimmer 18.40 18.24 74.30
121242 2023-10-03 20:46:31 Terrasse 13.20 12.40 69.80
121241 2023-10-03 20:33:13 Aussentemperatur 13.50 12.98 79.50
121240 2023-10-03 20:29:22 Bahnzimmer 18.40 18.24 74.40
121239 2023-10-03 20:18:23 Terrasse 13.30 12.48 68.70
121238 2023-10-03 20:04:48 Aussentemperatur 13.60 13.10 79.80
121237 2023-10-03 19:59:21 Bahnzimmer 18.50 18.35 74.50
121236 2023-10-03 19:50:17 Terrasse 13.70 12.90 67.80
121235 2023-10-03 19:36:23 Aussentemperatur 13.90 13.46 80.80
121234 2023-10-03 19:29:20 Bahnzimmer 18.60 18.47 74.70
121233 2023-10-03 19:22:11 Terrasse 14.30 13.59 69.30
121232 2023-10-03 19:07:57 Aussentemperatur 14.30 13.97 83.50
121231 2023-10-03 18:59:20 Bahnzimmer 18.70 18.58 74.70
121230 2023-10-03 18:54:05 Terrasse 14.70 14.11 72.20
121229 2023-10-03 18:39:30 Aussentemperatur 14.50 14.22 85.00
121228 2023-10-03 18:29:19 Bahnzimmer 18.90 18.80 74.70
121227 2023-10-03 18:25:57 Terrasse 15.20 14.65 71.80
121226 2023-10-03 18:11:10 Aussentemperatur 14.50 14.25 86.00
121225 2023-10-03 17:59:18 Bahnzimmer 18.70 18.58 74.70
121224 2023-10-03 17:57:48 Terrasse 15.20 14.68 73.00
121223 2023-10-03 17:42:41 Aussentemperatur 14.60 14.38 86.70
121222 2023-10-03 17:30:31 Terrasse 15.50 15.00 72.70